sensor_id;sensor_type;location;lat;lon;timestamp;P1;durP1;ratioP1;P2;durP2;ratioP2
48795;SDS011;34607;48.520;-1.330;2022-07-24T00:01:08;4.32;;;1.88;;
48795;SDS011;34607;48.520;-1.330;2022-07-24T00:03:35;2.85;;;2.08;;
48795;SDS011;34607;48.520;-1.330;2022-07-24T00:06:02;2.30;;;2.10;;
48795;SDS011;34607;48.520;-1.330;2022-07-24T00:08:29;2.85;;;2.13;;
48795;SDS011;34607;48.520;-1.330;2022-07-24T00:10:57;3.47;;;2.50;;
48795;SDS011;34607;48.520;-1.330;2022-07-24T00:13:25;4.57;;;2.17;;
48795;SDS011;34607;48.520;-1.330;2022-07-24T00:15:52;2.53;;;1.88;;
48795;SDS011;34607;48.520;-1.330;2022-07-24T00:18:19;2.67;;;2.20;;
48795;SDS011;34607;48.520;-1.330;2022-07-24T00:20:46;2.17;;;1.88;;
48795;SDS011;34607;48.520;-1.330;2022-07-24T00:23:13;3.22;;;2.10;;
48795;SDS011;34607;48.520;-1.330;2022-07-24T00:25:40;2.35;;;1.80;;
48795;SDS011;34607;48.520;-1.330;2022-07-24T00:28:09;3.22;;;2.28;;
48795;SDS011;34607;48.520;-1.330;2022-07-24T00:30:36;2.42;;;2.13;;
48795;SDS011;34607;48.520;-1.330;2022-07-24T00:33:03;2.88;;;2.30;;
48795;SDS011;34607;48.520;-1.330;2022-07-24T00:35:30;2.30;;;1.90;;
48795;SDS011;34607;48.520;-1.330;2022-07-24T00:37:57;2.38;;;2.17;;
48795;SDS011;34607;48.520;-1.330;2022-07-24T00:40:25;3.63;;;2.78;;
48795;SDS011;34607;48.520;-1.330;2022-07-24T00:42:52;2.53;;;2.33;;
48795;SDS011;34607;48.520;-1.330;2022-07-24T00:45:22;3.35;;;2.85;;
48795;SDS011;34607;48.520;-1.330;2022-07-24T00:47:49;3.65;;;2.90;;
48795;SDS011;34607;48.520;-1.330;2022-07-24T00:50:17;4.43;;;3.35;;
48795;SDS011;34607;48.520;-1.330;2022-07-24T00:52:44;3.72;;;2.70;;
48795;SDS011;34607;48.520;-1.330;2022-07-24T00:55:11;3.65;;;3.13;;
48795;SDS011;34607;48.520;-1.330;2022-07-24T00:57:39;3.33;;;3.03;;
48795;SDS011;34607;48.520;-1.330;2022-07-24T01:00:09;2.92;;;2.63;;
48795;SDS011;34607;48.520;-1.330;2022-07-24T01:02:40;3.03;;;2.53;;
48795;SDS011;34607;48.520;-1.330;2022-07-24T01:05:08;3.38;;;2.85;;
48795;SDS011;34607;48.520;-1.330;2022-07-24T01:07:36;3.30;;;2.80;;
48795;SDS011;34607;48.520;-1.330;2022-07-24T01:10:04;8.80;;;3.30;;
48795;SDS011;34607;48.520;-1.330;2022-07-24T01:12:33;4.00;;;2.80;;
48795;SDS011;34607;48.520;-1.330;2022-07-24T01:15:01;4.68;;;2.50;;
48795;SDS011;34607;48.520;-1.330;2022-07-24T01:17:29;6.85;;;3.83;;
48795;SDS011;34607;48.520;-1.330;2022-07-24T01:19:58;10.40;;;2.85;;
48795;SDS011;34607;48.520;-1.330;2022-07-24T01:22:27;3.53;;;2.80;;
48795;SDS011;34607;48.520;-1.330;2022-07-24T01:24:54;4.22;;;2.97;;
48795;SDS011;34607;48.520;-1.330;2022-07-24T01:27:22;3.22;;;2.60;;
48795;SDS011;34607;48.520;-1.330;2022-07-24T01:29:50;3.15;;;2.63;;
48795;SDS011;34607;48.520;-1.330;2022-07-24T01:32:18;3.60;;;2.85;;
48795;SDS011;34607;48.520;-1.330;2022-07-24T01:34:45;3.95;;;2.80;;
48795;SDS011;34607;48.520;-1.330;2022-07-24T01:37:12;2.97;;;2.40;;
48795;SDS011;34607;48.520;-1.330;2022-07-24T01:39:41;2.88;;;2.63;;
48795;SDS011;34607;48.520;-1.330;2022-07-24T01:42:08;7.30;;;3.20;;
48795;SDS011;34607;48.520;-1.330;2022-07-24T01:44:35;2.53;;;2.25;;
48795;SDS011;34607;48.520;-1.330;2022-07-24T01:47:02;5.43;;;2.53;;
48795;SDS011;34607;48.520;-1.330;2022-07-24T01:49:29;7.90;;;3.10;;
48795;SDS011;34607;48.520;-1.330;2022-07-24T01:51:56;6.65;;;2.88;;
48795;SDS011;34607;48.520;-1.330;2022-07-24T01:54:23;5.72;;;2.50;;
48795;SDS011;34607;48.520;-1.330;2022-07-24T01:56:52;5.53;;;2.75;;
48795;SDS011;34607;48.520;-1.330;2022-07-24T01:59:19;3.35;;;2.85;;
48795;SDS011;34607;48.520;-1.330;2022-07-24T02:01:46;3.92;;;2.88;;
48795;SDS011;34607;48.520;-1.330;2022-07-24T02:04:13;5.53;;;3.22;;
48795;SDS011;34607;48.520;-1.330;2022-07-24T02:06:40;2.67;;;2.47;;
48795;SDS011;34607;48.520;-1.330;2022-07-24T02:09:08;4.82;;;2.78;;
48795;SDS011;34607;48.520;-1.330;2022-07-24T02:11:35;3.88;;;2.60;;
48795;SDS011;34607;48.520;-1.330;2022-07-24T02:14:03;4.53;;;2.65;;
48795;SDS011;34607;48.520;-1.330;2022-07-24T02:16:31;5.85;;;3.03;;
48795;SDS011;34607;48.520;-1.330;2022-07-24T02:18:58;5.18;;;2.67;;
48795;SDS011;34607;48.520;-1.330;2022-07-24T02:21:26;4.82;;;3.10;;
48795;SDS011;34607;48.520;-1.330;2022-07-24T02:23:53;9.18;;;2.90;;
48795;SDS011;34607;48.520;-1.330;2022-07-24T02:26:20;5.70;;;3.05;;
48795;SDS011;34607;48.520;-1.330;2022-07-24T02:28:47;6.90;;;3.53;;
48795;SDS011;34607;48.520;-1.330;2022-07-24T02:31:16;7.72;;;3.53;;
48795;SDS011;34607;48.520;-1.330;2022-07-24T02:33:43;6.18;;;3.25;;
48795;SDS011;34607;48.520;-1.330;2022-07-24T02:36:10;5.85;;;2.60;;
48795;SDS011;34607;48.520;-1.330;2022-07-24T02:38:37;6.85;;;2.85;;
48795;SDS011;34607;48.520;-1.330;2022-07-24T02:41:04;4.63;;;2.92;;
48795;SDS011;34607;48.520;-1.330;2022-07-24T02:43:31;3.97;;;2.95;;
48795;SDS011;34607;48.520;-1.330;2022-07-24T02:45:59;3.60;;;3.10;;
48795;SDS011;34607;48.520;-1.330;2022-07-24T02:48:27;4.22;;;3.20;;
48795;SDS011;34607;48.520;-1.330;2022-07-24T02:50:54;3.50;;;3.17;;
48795;SDS011;34607;48.520;-1.330;2022-07-24T02:53:21;3.63;;;3.30;;
48795;SDS011;34607;48.520;-1.330;2022-07-24T02:55:48;3.83;;;2.67;;
48795;SDS011;34607;48.520;-1.330;2022-07-24T02:58:15;3.85;;;3.00;;
48795;SDS011;34607;48.520;-1.330;2022-07-24T03:00:43;3.17;;;2.63;;
48795;SDS011;34607;48.520;-1.330;2022-07-24T03:03:10;3.55;;;3.05;;
48795;SDS011;34607;48.520;-1.330;2022-07-24T03:05:39;3.67;;;3.00;;
48795;SDS011;34607;48.520;-1.330;2022-07-24T03:08:06;3.00;;;2.50;;
48795;SDS011;34607;48.520;-1.330;2022-07-24T03:10:33;3.47;;;3.17;;
48795;SDS011;34607;48.520;-1.330;2022-07-24T03:13:00;2.83;;;2.40;;
48795;SDS011;34607;48.520;-1.330;2022-07-24T03:15:27;3.03;;;2.65;;
48795;SDS011;34607;48.520;-1.330;2022-07-24T03:17:55;3.33;;;2.72;;
48795;SDS011;34607;48.520;-1.330;2022-07-24T03:20:23;4.13;;;2.28;;
48795;SDS011;34607;48.520;-1.330;2022-07-24T03:22:54;3.05;;;2.75;;
48795;SDS011;34607;48.520;-1.330;2022-07-24T03:25:21;3.08;;;2.60;;
48795;SDS011;34607;48.520;-1.330;2022-07-24T03:27:48;3.28;;;2.92;;
48795;SDS011;34607;48.520;-1.330;2022-07-24T03:30:16;2.78;;;2.58;;
48795;SDS011;34607;48.520;-1.330;2022-07-24T03:32:44;2.90;;;2.55;;
48795;SDS011;34607;48.520;-1.330;2022-07-24T03:35:12;4.40;;;3.05;;
48795;SDS011;34607;48.520;-1.330;2022-07-24T03:37:39;3.28;;;2.65;;
48795;SDS011;34607;48.520;-1.330;2022-07-24T03:40:08;2.65;;;2.38;;
48795;SDS011;34607;48.520;-1.330;2022-07-24T03:42:36;3.25;;;2.70;;
48795;SDS011;34607;48.520;-1.330;2022-07-24T03:45:04;3.20;;;2.90;;
48795;SDS011;34607;48.520;-1.330;2022-07-24T03:47:32;3.25;;;2.85;;
48795;SDS011;34607;48.520;-1.330;2022-07-24T03:49:59;3.05;;;2.70;;
48795;SDS011;34607;48.520;-1.330;2022-07-24T03:52:27;4.18;;;2.95;;
48795;SDS011;34607;48.520;-1.330;2022-07-24T03:54:54;3.63;;;3.25;;
48795;SDS011;34607;48.520;-1.330;2022-07-24T03:57:23;3.58;;;2.70;;
48795;SDS011;34607;48.520;-1.330;2022-07-24T03:59:50;3.00;;;2.70;;
48795;SDS011;34607;48.520;-1.330;2022-07-24T04:02:17;2.95;;;2.70;;
48795;SDS011;34607;48.520;-1.330;2022-07-24T04:04:44;4.38;;;3.28;;
48795;SDS011;34607;48.520;-1.330;2022-07-24T04:07:11;7.78;;;3.13;;
48795;SDS011;34607;48.520;-1.330;2022-07-24T04:09:38;3.45;;;3.15;;
48795;SDS011;34607;48.520;-1.330;2022-07-24T04:12:06;3.15;;;2.83;;
48795;SDS011;34607;48.520;-1.330;2022-07-24T04:14:35;3.22;;;3.03;;
48795;SDS011;34607;48.520;-1.330;2022-07-24T04:17:02;3.70;;;2.83;;
48795;SDS011;34607;48.520;-1.330;2022-07-24T04:19:29;3.22;;;2.97;;
48795;SDS011;34607;48.520;-1.330;2022-07-24T04:21:56;3.42;;;3.13;;
48795;SDS011;34607;48.520;-1.330;2022-07-24T04:24:24;4.28;;;3.20;;
48795;SDS011;34607;48.520;-1.330;2022-07-24T04:26:51;8.90;;;2.85;;
48795;SDS011;34607;48.520;-1.330;2022-07-24T04:29:18;3.83;;;3.40;;
48795;SDS011;34607;48.520;-1.330;2022-07-24T04:31:46;3.88;;;3.50;;
48795;SDS011;34607;48.520;-1.330;2022-07-24T04:34:13;4.38;;;3.22;;
48795;SDS011;34607;48.520;-1.330;2022-07-24T04:36:40;4.00;;;3.67;;
48795;SDS011;34607;48.520;-1.330;2022-07-24T04:39:07;3.50;;;3.20;;
48795;SDS011;34607;48.520;-1.330;2022-07-24T04:41:35;5.82;;;3.60;;
48795;SDS011;34607;48.520;-1.330;2022-07-24T04:44:02;3.55;;;3.25;;
48795;SDS011;34607;48.520;-1.330;2022-07-24T04:46:29;3.55;;;3.20;;
48795;SDS011;34607;48.520;-1.330;2022-07-24T04:48:58;3.80;;;3.50;;
48795;SDS011;34607;48.520;-1.330;2022-07-24T04:51:25;3.85;;;3.40;;
48795;SDS011;34607;48.520;-1.330;2022-07-24T04:53:52;3.45;;;3.15;;
48795;SDS011;34607;48.520;-1.330;2022-07-24T04:56:19;3.88;;;3.58;;
48795;SDS011;34607;48.520;-1.330;2022-07-24T04:58:46;3.38;;;3.08;;
48795;SDS011;34607;48.520;-1.330;2022-07-24T05:01:14;5.38;;;3.15;;
48795;SDS011;34607;48.520;-1.330;2022-07-24T05:03:41;5.07;;;3.72;;
48795;SDS011;34607;48.520;-1.330;2022-07-24T05:06:10;5.32;;;4.00;;
48795;SDS011;34607;48.520;-1.330;2022-07-24T05:08:37;3.17;;;2.88;;
48795;SDS011;34607;48.520;-1.330;2022-07-24T05:11:04;3.67;;;3.38;;
48795;SDS011;34607;48.520;-1.330;2022-07-24T05:13:31;4.97;;;3.67;;
48795;SDS011;34607;48.520;-1.330;2022-07-24T05:15:58;3.50;;;3.20;;
48795;SDS011;34607;48.520;-1.330;2022-07-24T05:18:25;3.72;;;3.22;;
48795;SDS011;34607;48.520;-1.330;2022-07-24T05:20:52;3.78;;;3.45;;
48795;SDS011;34607;48.520;-1.330;2022-07-24T05:26:03;3.67;;;3.30;;
48795;SDS011;34607;48.520;-1.330;2022-07-24T05:28:31;5.35;;;3.78;;
48795;SDS011;34607;48.520;-1.330;2022-07-24T05:30:59;3.45;;;3.15;;
48795;SDS011;34607;48.520;-1.330;2022-07-24T05:33:26;3.75;;;3.45;;
48795;SDS011;34607;48.520;-1.330;2022-07-24T05:35:53;3.70;;;3.33;;
48795;SDS011;34607;48.520;-1.330;2022-07-24T05:38:20;4.10;;;3.33;;
48795;SDS011;34607;48.520;-1.330;2022-07-24T05:40:47;3.90;;;3.22;;
48795;SDS011;34607;48.520;-1.330;2022-07-24T05:43:15;3.65;;;3.35;;
48795;SDS011;34607;48.520;-1.330;2022-07-24T05:45:43;3.95;;;3.55;;
48795;SDS011;34607;48.520;-1.330;2022-07-24T05:48:10;3.58;;;3.28;;
48795;SDS011;34607;48.520;-1.330;2022-07-24T05:50:37;3.75;;;3.45;;
48795;SDS011;34607;48.520;-1.330;2022-07-24T05:53:04;3.58;;;3.28;;
48795;SDS011;34607;48.520;-1.330;2022-07-24T05:55:31;7.70;;;3.55;;
48795;SDS011;34607;48.520;-1.330;2022-07-24T05:57:58;3.97;;;3.67;;
48795;SDS011;34607;48.520;-1.330;2022-07-24T06:00:27;5.05;;;3.53;;
48795;SDS011;34607;48.520;-1.330;2022-07-24T06:02:55;3.47;;;3.15;;
48795;SDS011;34607;48.520;-1.330;2022-07-24T06:05:22;4.43;;;3.15;;
48795;SDS011;34607;48.520;-1.330;2022-07-24T06:07:49;3.50;;;3.20;;
48795;SDS011;34607;48.520;-1.330;2022-07-24T06:10:16;3.10;;;2.85;;
48795;SDS011;34607;48.520;-1.330;2022-07-24T06:12:43;3.40;;;3.10;;
48795;SDS011;34607;48.520;-1.330;2022-07-24T06:15:11;3.83;;;2.97;;
48795;SDS011;34607;48.520;-1.330;2022-07-24T06:17:39;5.43;;;3.97;;
48795;SDS011;34607;48.520;-1.330;2022-07-24T06:20:08;3.85;;;3.13;;
48795;SDS011;34607;48.520;-1.330;2022-07-24T06:22:39;3.28;;;2.97;;
48795;SDS011;34607;48.520;-1.330;2022-07-24T06:25:07;3.20;;;2.95;;
48795;SDS011;34607;48.520;-1.330;2022-07-24T06:27:39;3.40;;;3.10;;
48795;SDS011;34607;48.520;-1.330;2022-07-24T06:30:11;4.28;;;3.28;;
48795;SDS011;34607;48.520;-1.330;2022-07-24T06:32:41;3.85;;;3.40;;
48795;SDS011;34607;48.520;-1.330;2022-07-24T06:35:09;4.40;;;4.00;;
48795;SDS011;34607;48.520;-1.330;2022-07-24T06:37:36;3.63;;;3.33;;
48795;SDS011;34607;48.520;-1.330;2022-07-24T06:40:04;4.18;;;3.00;;
48795;SDS011;34607;48.520;-1.330;2022-07-24T06:42:32;11.40;;;3.58;;
48795;SDS011;34607;48.520;-1.330;2022-07-24T06:44:59;3.47;;;3.17;;
48795;SDS011;34607;48.520;-1.330;2022-07-24T06:47:26;3.88;;;3.38;;
48795;SDS011;34607;48.520;-1.330;2022-07-24T06:49:55;3.13;;;2.90;;
48795;SDS011;34607;48.520;-1.330;2022-07-24T06:52:22;5.07;;;3.30;;
48795;SDS011;34607;48.520;-1.330;2022-07-24T06:54:50;4.45;;;3.40;;
48795;SDS011;34607;48.520;-1.330;2022-07-24T06:57:17;5.45;;;3.65;;
48795;SDS011;34607;48.520;-1.330;2022-07-24T06:59:44;3.65;;;3.35;;
48795;SDS011;34607;48.520;-1.330;2022-07-24T07:02:11;2.85;;;2.65;;
48795;SDS011;34607;48.520;-1.330;2022-07-24T07:04:38;3.55;;;3.25;;
48795;SDS011;34607;48.520;-1.330;2022-07-24T07:07:07;3.33;;;3.03;;
48795;SDS011;34607;48.520;-1.330;2022-07-24T07:09:34;2.65;;;2.45;;
48795;SDS011;34607;48.520;-1.330;2022-07-24T07:12:02;3.92;;;2.88;;
48795;SDS011;34607;48.520;-1.330;2022-07-24T07:14:29;2.47;;;2.28;;
48795;SDS011;34607;48.520;-1.330;2022-07-24T07:16:56;3.45;;;2.30;;
48795;SDS011;34607;48.520;-1.330;2022-07-24T07:19:23;3.00;;;2.00;;
48795;SDS011;34607;48.520;-1.330;2022-07-24T07:21:51;6.22;;;2.60;;
48795;SDS011;34607;48.520;-1.330;2022-07-24T07:24:19;4.55;;;2.05;;
48795;SDS011;34607;48.520;-1.330;2022-07-24T07:26:46;2.63;;;2.05;;
48795;SDS011;34607;48.520;-1.330;2022-07-24T07:29:13;3.45;;;1.75;;
48795;SDS011;34607;48.520;-1.330;2022-07-24T07:31:40;6.95;;;2.85;;
48795;SDS011;34607;48.520;-1.330;2022-07-24T07:34:08;1.92;;;1.73;;
48795;SDS011;34607;48.520;-1.330;2022-07-24T07:36:35;2.22;;;1.98;;
48795;SDS011;34607;48.520;-1.330;2022-07-24T07:39:02;2.55;;;2.00;;
48795;SDS011;34607;48.520;-1.330;2022-07-24T07:41:31;2.65;;;1.83;;
48795;SDS011;34607;48.520;-1.330;2022-07-24T07:43:58;2.97;;;1.80;;
48795;SDS011;34607;48.520;-1.330;2022-07-24T07:46:25;3.90;;;1.42;;
48795;SDS011;34607;48.520;-1.330;2022-07-24T07:48:52;3.10;;;1.52;;
48795;SDS011;34607;48.520;-1.330;2022-07-24T07:51:19;1.35;;;1.25;;
48795;SDS011;34607;48.520;-1.330;2022-07-24T07:53:46;1.58;;;1.48;;
48795;SDS011;34607;48.520;-1.330;2022-07-24T07:56:14;1.52;;;1.42;;
48795;SDS011;34607;48.520;-1.330;2022-07-24T07:58:42;3.00;;;1.70;;
48795;SDS011;34607;48.520;-1.330;2022-07-24T08:01:09;3.00;;;1.42;;
48795;SDS011;34607;48.520;-1.330;2022-07-24T08:03:37;3.38;;;1.48;;
48795;SDS011;34607;48.520;-1.330;2022-07-24T08:06:04;1.77;;;1.20;;
48795;SDS011;34607;48.520;-1.330;2022-07-24T08:08:31;1.60;;;1.10;;
48795;SDS011;34607;48.520;-1.330;2022-07-24T08:10:58;1.52;;;1.42;;
48795;SDS011;34607;48.520;-1.330;2022-07-24T08:13:25;3.25;;;1.20;;
48795;SDS011;34607;48.520;-1.330;2022-07-24T08:15:54;1.80;;;1.02;;
48795;SDS011;34607;48.520;-1.330;2022-07-24T08:18:21;1.27;;;0.90;;
48795;SDS011;34607;48.520;-1.330;2022-07-24T08:20:48;1.00;;;0.90;;
48795;SDS011;34607;48.520;-1.330;2022-07-24T08:23:16;1.77;;;1.10;;
48795;SDS011;34607;48.520;-1.330;2022-07-24T08:25:43;1.17;;;1.08;;
48795;SDS011;34607;48.520;-1.330;2022-07-24T08:28:10;2.58;;;1.38;;
48795;SDS011;34607;48.520;-1.330;2022-07-24T08:30:37;1.40;;;1.30;;
48795;SDS011;34607;48.520;-1.330;2022-07-24T08:33:06;1.60;;;1.05;;
48795;SDS011;34607;48.520;-1.330;2022-07-24T08:35:33;1.65;;;1.08;;
48795;SDS011;34607;48.520;-1.330;2022-07-24T08:38:00;1.35;;;1.23;;
48795;SDS011;34607;48.520;-1.330;2022-07-24T08:40:30;1.40;;;1.30;;
48795;SDS011;34607;48.520;-1.330;2022-07-24T08:43:00;1.25;;;1.13;;
48795;SDS011;34607;48.520;-1.330;2022-07-24T08:45:27;1.23;;;0.98;;
48795;SDS011;34607;48.520;-1.330;2022-07-24T08:47:55;1.40;;;1.17;;
48795;SDS011;34607;48.520;-1.330;2022-07-24T08:50:24;1.63;;;1.30;;
48795;SDS011;34607;48.520;-1.330;2022-07-24T08:52:51;2.15;;;0.93;;
48795;SDS011;34607;48.520;-1.330;2022-07-24T08:55:18;2.28;;;1.02;;
48795;SDS011;34607;48.520;-1.330;2022-07-24T08:57:46;1.95;;;1.58;;
48795;SDS011;34607;48.520;-1.330;2022-07-24T09:00:13;1.40;;;1.05;;
48795;SDS011;34607;48.520;-1.330;2022-07-24T09:02:41;2.15;;;1.20;;
48795;SDS011;34607;48.520;-1.330;2022-07-24T09:05:08;3.47;;;1.05;;
48795;SDS011;34607;48.520;-1.330;2022-07-24T09:07:37;1.25;;;1.10;;
48795;SDS011;34607;48.520;-1.330;2022-07-24T09:10:05;1.83;;;1.10;;
48795;SDS011;34607;48.520;-1.330;2022-07-24T09:12:34;2.88;;;1.00;;
48795;SDS011;34607;48.520;-1.330;2022-07-24T09:15:10;2.30;;;1.30;;
48795;SDS011;34607;48.520;-1.330;2022-07-24T09:17:46;2.10;;;1.08;;
48795;SDS011;34607;48.520;-1.330;2022-07-24T09:20:14;2.38;;;1.40;;
48795;SDS011;34607;48.520;-1.330;2022-07-24T09:22:43;3.38;;;1.30;;
48795;SDS011;34607;48.520;-1.330;2022-07-24T09:25:12;1.20;;;1.10;;
48795;SDS011;34607;48.520;-1.330;2022-07-24T09:27:41;2.05;;;1.38;;
48795;SDS011;34607;48.520;-1.330;2022-07-24T09:30:24;2.07;;;1.60;;
48795;SDS011;34607;48.520;-1.330;2022-07-24T09:32:53;1.23;;;1.08;;
48795;SDS011;34607;48.520;-1.330;2022-07-24T09:35:22;3.28;;;1.10;;
48795;SDS011;34607;48.520;-1.330;2022-07-24T09:37:55;1.35;;;1.25;;
48795;SDS011;34607;48.520;-1.330;2022-07-24T09:40:27;1.55;;;1.23;;
48795;SDS011;34607;48.520;-1.330;2022-07-24T09:42:56;2.70;;;1.25;;
48795;SDS011;34607;48.520;-1.330;2022-07-24T09:45:50;3.70;;;1.20;;
48795;SDS011;34607;48.520;-1.330;2022-07-24T09:50:51;1.40;;;1.27;;
48795;SDS011;34607;48.520;-1.330;2022-07-24T09:53:22;1.63;;;1.25;;
48795;SDS011;34607;48.520;-1.330;2022-07-24T09:55:57;2.90;;;1.58;;
48795;SDS011;34607;48.520;-1.330;2022-07-24T09:58:26;4.65;;;1.40;;
48795;SDS011;34607;48.520;-1.330;2022-07-24T10:00:54;5.00;;;1.67;;
48795;SDS011;34607;48.520;-1.330;2022-07-24T10:03:24;2.47;;;1.30;;
48795;SDS011;34607;48.520;-1.330;2022-07-24T10:05:55;5.85;;;1.50;;
48795;SDS011;34607;48.520;-1.330;2022-07-24T10:08:26;4.93;;;1.65;;
48795;SDS011;34607;48.520;-1.330;2022-07-24T10:10:53;2.95;;;1.25;;
48795;SDS011;34607;48.520;-1.330;2022-07-24T10:13:21;3.42;;;1.30;;
48795;SDS011;34607;48.520;-1.330;2022-07-24T10:15:54;2.20;;;1.13;;
48795;SDS011;34607;48.520;-1.330;2022-07-24T10:18:52;2.85;;;1.52;;
48795;SDS011;34607;48.520;-1.330;2022-07-24T10:21:21;2.72;;;0.98;;
48795;SDS011;34607;48.520;-1.330;2022-07-24T10:24:02;2.17;;;1.20;;
48795;SDS011;34607;48.520;-1.330;2022-07-24T10:26:58;3.03;;;1.60;;
48795;SDS011;34607;48.520;-1.330;2022-07-24T10:29:29;1.92;;;1.20;;
48795;SDS011;34607;48.520;-1.330;2022-07-24T10:32:01;3.50;;;1.42;;
48795;SDS011;34607;48.520;-1.330;2022-07-24T10:34:30;1.98;;;1.20;;
48795;SDS011;34607;48.520;-1.330;2022-07-24T10:37:05;1.77;;;1.30;;
48795;SDS011;34607;48.520;-1.330;2022-07-24T10:39:43;2.10;;;1.27;;
48795;SDS011;34607;48.520;-1.330;2022-07-24T10:42:20;2.53;;;1.67;;
48795;SDS011;34607;48.520;-1.330;2022-07-24T10:47:43;4.55;;;1.10;;
48795;SDS011;34607;48.520;-1.330;2022-07-24T10:50:10;2.47;;;1.25;;
48795;SDS011;34607;48.520;-1.330;2022-07-24T10:52:40;1.48;;;1.30;;
48795;SDS011;34607;48.520;-1.330;2022-07-24T10:55:22;2.65;;;1.30;;
48795;SDS011;34607;48.520;-1.330;2022-07-24T10:57:56;1.90;;;1.20;;
48795;SDS011;34607;48.520;-1.330;2022-07-24T11:00:25;6.57;;;1.20;;
48795;SDS011;34607;48.520;-1.330;2022-07-24T11:02:57;2.45;;;1.45;;
48795;SDS011;34607;48.520;-1.330;2022-07-24T11:05:27;1.65;;;1.25;;
48795;SDS011;34607;48.520;-1.330;2022-07-24T11:08:13;2.22;;;1.40;;
48795;SDS011;34607;48.520;-1.330;2022-07-24T11:11:12;3.25;;;1.25;;
48795;SDS011;34607;48.520;-1.330;2022-07-24T11:16:31;1.92;;;1.40;;
48795;SDS011;34607;48.520;-1.330;2022-07-24T11:22:08;2.78;;;1.40;;
48795;SDS011;34607;48.520;-1.330;2022-07-24T11:24:41;3.15;;;1.83;;
48795;SDS011;34607;48.520;-1.330;2022-07-24T11:27:28;1.35;;;1.20;;
48795;SDS011;34607;48.520;-1.330;2022-07-24T11:30:09;1.27;;;1.15;;
48795;SDS011;34607;48.520;-1.330;2022-07-24T11:32:38;1.77;;;1.10;;
48795;SDS011;34607;48.520;-1.330;2022-07-24T11:35:06;1.30;;;1.20;;
48795;SDS011;34607;48.520;-1.330;2022-07-24T11:37:34;2.53;;;1.35;;
48795;SDS011;34607;48.520;-1.330;2022-07-24T11:40:02;1.35;;;1.20;;
48795;SDS011;34607;48.520;-1.330;2022-07-24T11:42:33;3.80;;;1.20;;
48795;SDS011;34607;48.520;-1.330;2022-07-24T11:45:00;1.65;;;1.35;;
48795;SDS011;34607;48.520;-1.330;2022-07-24T11:47:28;2.50;;;2.22;;
48795;SDS011;34607;48.520;-1.330;2022-07-24T11:49:56;1.42;;;1.30;;
48795;SDS011;34607;48.520;-1.330;2022-07-24T11:52:27;2.35;;;1.30;;
48795;SDS011;34607;48.520;-1.330;2022-07-24T11:54:59;1.40;;;1.30;;
48795;SDS011;34607;48.520;-1.330;2022-07-24T11:57:27;2.03;;;1.48;;
48795;SDS011;34607;48.520;-1.330;2022-07-24T11:59:57;1.20;;;1.10;;
48795;SDS011;34607;48.520;-1.330;2022-07-24T12:02:24;0.95;;;0.95;;
48795;SDS011;34607;48.520;-1.330;2022-07-24T12:04:52;1.33;;;1.13;;
48795;SDS011;34607;48.520;-1.330;2022-07-24T12:07:20;1.27;;;1.08;;
48795;SDS011;34607;48.520;-1.330;2022-07-24T12:09:50;1.45;;;1.33;;
48795;SDS011;34607;48.520;-1.330;2022-07-24T12:12:20;1.45;;;1.20;;
48795;SDS011;34607;48.520;-1.330;2022-07-24T12:14:50;1.33;;;1.13;;
48795;SDS011;34607;48.520;-1.330;2022-07-24T12:17:20;1.88;;;1.25;;
48795;SDS011;34607;48.520;-1.330;2022-07-24T12:19:54;1.75;;;1.65;;
48795;SDS011;34607;48.520;-1.330;2022-07-24T12:22:23;3.50;;;1.40;;
48795;SDS011;34607;48.520;-1.330;2022-07-24T12:24:52;2.03;;;1.05;;
48795;SDS011;34607;48.520;-1.330;2022-07-24T12:27:37;1.40;;;1.30;;
48795;SDS011;34607;48.520;-1.330;2022-07-24T12:35:51;4.35;;;1.25;;
48795;SDS011;34607;48.520;-1.330;2022-07-24T12:38:23;5.57;;;3.00;;
48795;SDS011;34607;48.520;-1.330;2022-07-24T12:41:00;1.92;;;1.08;;
48795;SDS011;34607;48.520;-1.330;2022-07-24T12:43:29;1.30;;;1.10;;
48795;SDS011;34607;48.520;-1.330;2022-07-24T12:46:06;1.35;;;1.10;;
48795;SDS011;34607;48.520;-1.330;2022-07-24T12:48:36;1.92;;;1.05;;
48795;SDS011;34607;48.520;-1.330;2022-07-24T12:51:05;3.28;;;2.10;;
48795;SDS011;34607;48.520;-1.330;2022-07-24T12:53:35;1.35;;;1.15;;
48795;SDS011;34607;48.520;-1.330;2022-07-24T12:56:08;2.75;;;1.27;;
48795;SDS011;34607;48.520;-1.330;2022-07-24T13:01:25;2.05;;;1.20;;
48795;SDS011;34607;48.520;-1.330;2022-07-24T13:03:56;2.10;;;1.10;;
48795;SDS011;34607;48.520;-1.330;2022-07-24T13:06:34;1.42;;;1.20;;
48795;SDS011;34607;48.520;-1.330;2022-07-24T13:09:03;2.13;;;1.23;;
48795;SDS011;34607;48.520;-1.330;2022-07-24T13:11:30;1.42;;;1.15;;
48795;SDS011;34607;48.520;-1.330;2022-07-24T13:13:58;1.67;;;1.35;;
48795;SDS011;34607;48.520;-1.330;2022-07-24T13:16:29;1.20;;;1.10;;
48795;SDS011;34607;48.520;-1.330;2022-07-24T13:18:58;1.20;;;1.10;;
48795;SDS011;34607;48.520;-1.330;2022-07-24T13:21:26;1.35;;;1.02;;
48795;SDS011;34607;48.520;-1.330;2022-07-24T13:23:54;1.83;;;1.67;;
48795;SDS011;34607;48.520;-1.330;2022-07-24T13:26:21;3.90;;;1.50;;
48795;SDS011;34607;48.520;-1.330;2022-07-24T13:28:49;1.48;;;1.38;;
48795;SDS011;34607;48.520;-1.330;2022-07-24T13:31:16;1.40;;;1.08;;
48795;SDS011;34607;48.520;-1.330;2022-07-24T13:33:45;1.73;;;1.35;;
48795;SDS011;34607;48.520;-1.330;2022-07-24T13:36:14;2.40;;;1.58;;
48795;SDS011;34607;48.520;-1.330;2022-07-24T13:38:41;2.58;;;1.00;;
48795;SDS011;34607;48.520;-1.330;2022-07-24T13:41:08;1.25;;;1.15;;
48795;SDS011;34607;48.520;-1.330;2022-07-24T13:43:36;1.52;;;1.42;;
48795;SDS011;34607;48.520;-1.330;2022-07-24T13:46:03;1.30;;;1.20;;
48795;SDS011;34607;48.520;-1.330;2022-07-24T13:48:31;2.63;;;1.20;;
48795;SDS011;34607;48.520;-1.330;2022-07-24T13:50:58;2.42;;;1.38;;
48795;SDS011;34607;48.520;-1.330;2022-07-24T13:53:27;4.15;;;1.30;;
48795;SDS011;34607;48.520;-1.330;2022-07-24T13:55:54;1.25;;;1.00;;
48795;SDS011;34607;48.520;-1.330;2022-07-24T13:58:21;1.20;;;1.10;;
48795;SDS011;34607;48.520;-1.330;2022-07-24T14:00:48;1.50;;;1.27;;
48795;SDS011;34607;48.520;-1.330;2022-07-24T14:03:15;2.58;;;1.40;;
48795;SDS011;34607;48.520;-1.330;2022-07-24T14:05:42;1.65;;;1.52;;
48795;SDS011;34607;48.520;-1.330;2022-07-24T14:08:09;2.13;;;1.08;;
48795;SDS011;34607;48.520;-1.330;2022-07-24T14:10:38;4.00;;;1.73;;
48795;SDS011;34607;48.520;-1.330;2022-07-24T14:13:05;1.77;;;1.20;;
48795;SDS011;34607;48.520;-1.330;2022-07-24T14:15:32;1.25;;;1.17;;
48795;SDS011;34607;48.520;-1.330;2022-07-24T14:17:59;1.77;;;1.30;;
48795;SDS011;34607;48.520;-1.330;2022-07-24T14:20:26;2.50;;;1.40;;
48795;SDS011;34607;48.520;-1.330;2022-07-24T14:22:53;2.75;;;1.45;;
48795;SDS011;34607;48.520;-1.330;2022-07-24T14:25:20;1.15;;;1.05;;
48795;SDS011;34607;48.520;-1.330;2022-07-24T14:27:49;1.50;;;1.40;;
48795;SDS011;34607;48.520;-1.330;2022-07-24T14:30:16;3.95;;;1.25;;
48795;SDS011;34607;48.520;-1.330;2022-07-24T14:32:43;1.40;;;1.30;;
48795;SDS011;34607;48.520;-1.330;2022-07-24T14:35:10;2.58;;;1.60;;
48795;SDS011;34607;48.520;-1.330;2022-07-24T14:37:37;1.67;;;1.38;;
48795;SDS011;34607;48.520;-1.330;2022-07-24T14:40:06;1.67;;;1.13;;
48795;SDS011;34607;48.520;-1.330;2022-07-24T14:42:35;0.93;;;0.93;;
48795;SDS011;34607;48.520;-1.330;2022-07-24T14:45:04;1.25;;;1.15;;
48795;SDS011;34607;48.520;-1.330;2022-07-24T14:47:32;1.63;;;1.17;;
48795;SDS011;34607;48.520;-1.330;2022-07-24T14:49:59;1.55;;;1.00;;
48795;SDS011;34607;48.520;-1.330;2022-07-24T14:52:26;2.88;;;1.50;;
48795;SDS011;34607;48.520;-1.330;2022-07-24T14:54:53;2.38;;;1.30;;
48795;SDS011;34607;48.520;-1.330;2022-07-24T14:57:20;3.47;;;1.30;;
48795;SDS011;34607;48.520;-1.330;2022-07-24T14:59:48;3.15;;;1.20;;
48795;SDS011;34607;48.520;-1.330;2022-07-24T15:02:16;2.53;;;1.10;;
48795;SDS011;34607;48.520;-1.330;2022-07-24T15:04:43;2.33;;;1.33;;